sensor_id;sensor_type;location;lat;lon;timestamp;pressure;altitude;pressure_sealevel;temperature;humidity
57990;BME280;58373;51.824;5.564;2023-05-07T00:01:28;101558.22;;;14.06;92.79
57990;BME280;58373;51.824;5.564;2023-05-07T00:03:53;101552.28;;;14.04;92.74
57990;BME280;58373;51.824;5.564;2023-05-07T00:06:18;101553.22;;;14.03;92.87
57990;BME280;58373;51.824;5.564;2023-05-07T00:08:44;101549.13;;;14.00;92.57
57990;BME280;58373;51.824;5.564;2023-05-07T00:11:09;101552.09;;;13.96;92.53
57990;BME280;58373;51.824;5.564;2023-05-07T00:13:35;101545.47;;;13.92;92.50
57990;BME280;58373;51.824;5.564;2023-05-07T00:16:03;101552.63;;;13.90;92.86
57990;BME280;58373;51.824;5.564;2023-05-07T00:18:28;101553.69;;;13.87;92.96
57990;BME280;58373;51.824;5.564;2023-05-07T00:20:53;101547.66;;;13.87;93.19
57990;BME280;58373;51.824;5.564;2023-05-07T00:23:19;101546.81;;;13.86;93.35
57990;BME280;58373;51.824;5.564;2023-05-07T00:25:44;101546.28;;;13.82;93.12
57990;BME280;58373;51.824;5.564;2023-05-07T00:28:10;101535.84;;;13.82;93.46
57990;BME280;58373;51.824;5.564;2023-05-07T00:30:35;101539.38;;;13.81;93.40
57990;BME280;58373;51.824;5.564;2023-05-07T00:33:01;101543.78;;;13.81;93.41
57990;BME280;58373;51.824;5.564;2023-05-07T00:35:26;101536.91;;;13.80;93.53
57990;BME280;58373;51.824;5.564;2023-05-07T00:37:51;101530.88;;;13.79;93.89
57990;BME280;58373;51.824;5.564;2023-05-07T00:40:16;101528.25;;;13.79;94.13
57990;BME280;58373;51.824;5.564;2023-05-07T00:42:42;101528.41;;;13.78;94.17
57990;BME280;58373;51.824;5.564;2023-05-07T00:45:12;101524.00;;;13.78;94.44
57990;BME280;58373;51.824;5.564;2023-05-07T00:47:38;101522.38;;;13.77;94.59
57990;BME280;58373;51.824;5.564;2023-05-07T00:50:03;101519.75;;;13.77;94.63
57990;BME280;58373;51.824;5.564;2023-05-07T00:52:30;101519.75;;;13.77;94.70
57990;BME280;58373;51.824;5.564;2023-05-07T00:54:55;101518.81;;;13.78;95.00
57990;BME280;58373;51.824;5.564;2023-05-07T00:57:21;101514.53;;;13.77;95.03
57990;BME280;58373;51.824;5.564;2023-05-07T00:59:46;101508.38;;;13.78;95.01
57990;BME280;58373;51.824;5.564;2023-05-07T01:02:12;101517.16;;;13.77;95.38
57990;BME280;58373;51.824;5.564;2023-05-07T01:04:37;101515.22;;;13.79;95.42
57990;BME280;58373;51.824;5.564;2023-05-07T01:07:02;101511.94;;;13.77;95.42
57990;BME280;58373;51.824;5.564;2023-05-07T01:09:28;101511.13;;;13.77;95.41
57990;BME280;58373;51.824;5.564;2023-05-07T01:11:54;101511.94;;;13.77;95.41
57990;BME280;58373;51.824;5.564;2023-05-07T01:14:20;101516.31;;;13.77;95.45
57990;BME280;58373;51.824;5.564;2023-05-07T01:16:46;101517.16;;;13.77;95.52
57990;BME280;58373;51.824;5.564;2023-05-07T01:19:11;101514.53;;;13.77;95.44
57990;BME280;58373;51.824;5.564;2023-05-07T01:21:38;101512.91;;;13.76;95.35
57990;BME280;58373;51.824;5.564;2023-05-07T01:24:08;101519.03;;;13.75;95.59
57990;BME280;58373;51.824;5.564;2023-05-07T01:26:34;101512.19;;;13.74;95.31
57990;BME280;58373;51.824;5.564;2023-05-07T01:28:59;101511.22;;;13.75;95.35
57990;BME280;58373;51.824;5.564;2023-05-07T01:31:25;101510.53;;;13.73;95.52
57990;BME280;58373;51.824;5.564;2023-05-07T01:33:50;101514.09;;;13.72;95.55
57990;BME280;58373;51.824;5.564;2023-05-07T01:36:17;101505.56;;;13.70;95.57
57990;BME280;58373;51.824;5.564;2023-05-07T01:38:43;101507.25;;;13.71;95.84
57990;BME280;58373;51.824;5.564;2023-05-07T01:41:08;101509.03;;;13.71;95.81
57990;BME280;58373;51.824;5.564;2023-05-07T01:43:33;101514.34;;;13.69;95.84
57990;BME280;58373;51.824;5.564;2023-05-07T01:45:58;101507.47;;;13.68;96.12
57990;BME280;58373;51.824;5.564;2023-05-07T01:48:24;101507.47;;;13.68;95.97
57990;BME280;58373;51.824;5.564;2023-05-07T01:50:50;101509.13;;;13.69;95.92
57990;BME280;58373;51.824;5.564;2023-05-07T01:53:16;101502.28;;;13.68;96.13
57990;BME280;58373;51.824;5.564;2023-05-07T01:55:41;101502.28;;;13.68;96.06
57990;BME280;58373;51.824;5.564;2023-05-07T01:58:06;101494.59;;;13.67;96.08
57990;BME280;58373;51.824;5.564;2023-05-07T02:00:32;101505.84;;;13.67;96.31
57990;BME280;58373;51.824;5.564;2023-05-07T02:02:57;101498.97;;;13.66;96.20
57990;BME280;58373;51.824;5.564;2023-05-07T02:05:22;101502.78;;;13.62;96.36
57990;BME280;58373;51.824;5.564;2023-05-07T02:07:48;101492.63;;;13.59;96.31
57990;BME280;58373;51.824;5.564;2023-05-07T02:10:13;101498.91;;;13.57;96.40
57990;BME280;58373;51.824;5.564;2023-05-07T02:12:38;101493.13;;;13.53;96.48
57990;BME280;58373;51.824;5.564;2023-05-07T02:15:03;101491.59;;;13.50;96.51
57990;BME280;58373;51.824;5.564;2023-05-07T02:17:28;101491.03;;;13.47;96.57
57990;BME280;58373;51.824;5.564;2023-05-07T02:19:56;101489.38;;;13.46;96.82
57990;BME280;58373;51.824;5.564;2023-05-07T02:22:22;101490.09;;;13.48;96.67
57990;BME280;58373;51.824;5.564;2023-05-07T02:24:47;101490.09;;;13.48;96.52
57990;BME280;58373;51.824;5.564;2023-05-07T02:27:12;101489.13;;;13.49;96.53
57990;BME280;58373;51.824;5.564;2023-05-07T02:29:37;101480.50;;;13.48;97.03
57990;BME280;58373;51.824;5.564;2023-05-07T02:32:02;101499.56;;;13.49;96.72
57990;BME280;58373;51.824;5.564;2023-05-07T02:34:28;101490.09;;;13.48;96.99
57990;BME280;58373;51.824;5.564;2023-05-07T02:36:53;101497.78;;;13.49;97.02
57990;BME280;58373;51.824;5.564;2023-05-07T02:39:18;101498.59;;;13.50;96.90
57990;BME280;58373;51.824;5.564;2023-05-07T02:41:43;101492.56;;;13.49;96.90
57990;BME280;58373;51.824;5.564;2023-05-07T02:44:08;101501.22;;;13.50;96.83
57990;BME280;58373;51.824;5.564;2023-05-07T02:46:34;101503.81;;;13.50;96.94
57990;BME280;58373;51.824;5.564;2023-05-07T02:48:59;101503.13;;;13.48;96.94
57990;BME280;58373;51.824;5.564;2023-05-07T02:51:25;101503.13;;;13.48;97.04
57990;BME280;58373;51.824;5.564;2023-05-07T02:53:51;101501.34;;;13.48;97.11
57990;BME280;58373;51.824;5.564;2023-05-07T02:56:16;101493.75;;;13.45;97.06
57990;BME280;58373;51.824;5.564;2023-05-07T02:58:41;101497.19;;;13.46;97.03
57990;BME280;58373;51.824;5.564;2023-05-07T03:01:09;101511.19;;;13.45;97.05
57990;BME280;58373;51.824;5.564;2023-05-07T03:03:35;101494.72;;;13.44;97.35
57990;BME280;58373;51.824;5.564;2023-05-07T03:06:00;101493.91;;;13.44;96.91
57990;BME280;58373;51.824;5.564;2023-05-07T03:08:26;101494.97;;;13.41;97.00
57990;BME280;58373;51.824;5.564;2023-05-07T03:10:51;101485.38;;;13.42;97.23
57990;BME280;58373;51.824;5.564;2023-05-07T03:13:16;101487.28;;;13.40;97.28
57990;BME280;58373;51.824;5.564;2023-05-07T03:15:41;101490.84;;;13.39;97.24
57990;BME280;58373;51.824;5.564;2023-05-07T03:18:07;101490.03;;;13.38;97.16
57990;BME280;58373;51.824;5.564;2023-05-07T03:20:32;101498.66;;;13.39;97.37
57990;BME280;58373;51.824;5.564;2023-05-07T03:22:57;101499.63;;;13.38;97.04
57990;BME280;58373;51.824;5.564;2023-05-07T03:25:22;101489.19;;;13.38;97.71
57990;BME280;58373;51.824;5.564;2023-05-07T03:27:48;101493.69;;;13.36;97.52
57990;BME280;58373;51.824;5.564;2023-05-07T03:30:13;101493.00;;;13.34;97.67
57990;BME280;58373;51.824;5.564;2023-05-07T03:32:38;101493.00;;;13.34;97.82
57990;BME280;58373;51.824;5.564;2023-05-07T03:35:04;101495.47;;;13.35;97.71
57990;BME280;58373;51.824;5.564;2023-05-07T03:37:29;101494.66;;;13.35;97.82
57990;BME280;58373;51.824;5.564;2023-05-07T03:39:55;101498.22;;;13.34;97.77
57990;BME280;58373;51.824;5.564;2023-05-07T03:42:20;101487.78;;;13.34;98.21
57990;BME280;58373;51.824;5.564;2023-05-07T03:44:45;101487.94;;;13.32;98.01
57990;BME280;58373;51.824;5.564;2023-05-07T03:47:10;101479.28;;;13.32;97.95
57990;BME280;58373;51.824;5.564;2023-05-07T03:49:36;101489.94;;;13.28;97.99
57990;BME280;58373;51.824;5.564;2023-05-07T03:52:01;101484.50;;;13.32;98.11
57990;BME280;58373;51.824;5.564;2023-05-07T03:54:26;101490.66;;;13.31;98.39
57990;BME280;58373;51.824;5.564;2023-05-07T03:56:52;101496.81;;;13.29;98.47
57990;BME280;58373;51.824;5.564;2023-05-07T03:59:17;101495.03;;;13.30;98.35
57990;BME280;58373;51.824;5.564;2023-05-07T04:01:42;101500.13;;;13.32;98.60
57990;BME280;58373;51.824;5.564;2023-05-07T04:04:07;101491.50;;;13.31;98.54
57990;BME280;58373;51.824;5.564;2023-05-07T04:06:32;101496.56;;;13.33;98.59
57990;BME280;58373;51.824;5.564;2023-05-07T04:08:58;101500.13;;;13.32;98.92
57990;BME280;58373;51.824;5.564;2023-05-07T04:11:23;101496.56;;;13.33;98.68
57990;BME280;58373;51.824;5.564;2023-05-07T04:13:48;101508.75;;;13.32;99.09
57990;BME280;58373;51.824;5.564;2023-05-07T04:16:14;101507.22;;;13.29;98.81
57990;BME280;58373;51.824;5.564;2023-05-07T04:18:39;101503.69;;;13.31;98.79
57990;BME280;58373;51.824;5.564;2023-05-07T04:21:04;101514.13;;;13.31;98.87
57990;BME280;58373;51.824;5.564;2023-05-07T04:23:30;101506.41;;;13.29;98.91
57990;BME280;58373;51.824;5.564;2023-05-07T04:25:55;101502.00;;;13.29;99.39
57990;BME280;58373;51.824;5.564;2023-05-07T04:28:21;101502.97;;;13.28;99.35
57990;BME280;58373;51.824;5.564;2023-05-07T04:30:46;101502.28;;;13.26;99.41
57990;BME280;58373;51.824;5.564;2023-05-07T04:33:11;101502.28;;;13.26;99.69
57990;BME280;58373;51.824;5.564;2023-05-07T04:35:36;101508.44;;;13.25;99.79
57990;BME280;58373;51.824;5.564;2023-05-07T04:38:02;101498.03;;;13.25;99.48
57990;BME280;58373;51.824;5.564;2023-05-07T04:40:27;101509.13;;;13.27;99.33
57990;BME280;58373;51.824;5.564;2023-05-07T04:42:52;101504.63;;;13.29;99.77
57990;BME280;58373;51.824;5.564;2023-05-07T04:45:18;101506.41;;;13.29;99.80
57990;BME280;58373;51.824;5.564;2023-05-07T04:47:43;101502.00;;;13.29;99.54
57990;BME280;58373;51.824;5.564;2023-05-07T04:50:08;101508.06;;;13.30;99.70
57990;BME280;58373;51.824;5.564;2023-05-07T04:52:34;101523.44;;;13.33;99.96
57990;BME280;58373;51.824;5.564;2023-05-07T04:54:59;101520.97;;;13.32;100.00
57990;BME280;58373;51.824;5.564;2023-05-07T04:57:25;101517.41;;;13.33;100.00
57990;BME280;58373;51.824;5.564;2023-05-07T04:59:51;101519.06;;;13.34;100.00
57990;BME280;58373;51.824;5.564;2023-05-07T05:02:16;101515.75;;;13.32;100.00
57990;BME280;58373;51.824;5.564;2023-05-07T05:04:41;101527.81;;;13.33;100.00
57990;BME280;58373;51.824;5.564;2023-05-07T05:07:06;101529.47;;;13.34;100.00
57990;BME280;58373;51.824;5.564;2023-05-07T05:09:32;101524.28;;;13.34;100.00
57990;BME280;58373;51.824;5.564;2023-05-07T05:11:57;101534.69;;;13.34;100.00
57990;BME280;58373;51.824;5.564;2023-05-07T05:14:22;101532.78;;;13.36;100.00
57990;BME280;58373;51.824;5.564;2023-05-07T05:16:47;101541.31;;;13.38;100.00
57990;BME280;58373;51.824;5.564;2023-05-07T05:19:13;101536.09;;;13.38;100.00
57990;BME280;58373;51.824;5.564;2023-05-07T05:21:38;101535.13;;;13.39;100.00
57990;BME280;58373;51.824;5.564;2023-05-07T05:24:03;101537.47;;;13.42;100.00
57990;BME280;58373;51.824;5.564;2023-05-07T05:26:28;101524.34;;;13.43;100.00
57990;BME280;58373;51.824;5.564;2023-05-07T05:28:54;101535.84;;;13.41;100.00
57990;BME280;58373;51.824;5.564;2023-05-07T05:31:19;101543.78;;;13.39;100.00
57990;BME280;58373;51.824;5.564;2023-05-07T05:33:44;101539.41;;;13.40;100.00
57990;BME280;58373;51.824;5.564;2023-05-07T05:36:10;101542.69;;;13.42;100.00
57990;BME280;58373;51.824;5.564;2023-05-07T05:38:35;101550.03;;;13.48;100.00
57990;BME280;58373;51.824;5.564;2023-05-07T05:41:01;101550.97;;;13.47;100.00
57990;BME280;58373;51.824;5.564;2023-05-07T05:43:26;101556.16;;;13.47;100.00
57990;BME280;58373;51.824;5.564;2023-05-07T05:45:51;101561.97;;;13.50;100.00
57990;BME280;58373;51.824;5.564;2023-05-07T05:48:16;101559.00;;;13.55;100.00
57990;BME280;58373;51.824;5.564;2023-05-07T05:50:42;101557.06;;;13.57;100.00
57990;BME280;58373;51.824;5.564;2023-05-07T05:53:07;101565.63;;;13.59;100.00
57990;BME280;58373;51.824;5.564;2023-05-07T05:55:32;101568.91;;;13.61;100.00
57990;BME280;58373;51.824;5.564;2023-05-07T05:57:58;101570.31;;;13.65;100.00
57990;BME280;58373;51.824;5.564;2023-05-07T06:00:24;101565.94;;;13.66;100.00
57990;BME280;58373;51.824;5.564;2023-05-07T06:02:49;101565.66;;;13.69;100.00
57990;BME280;58373;51.824;5.564;2023-05-07T06:05:14;101566.75;;;13.66;100.00
57990;BME280;58373;51.824;5.564;2023-05-07T06:07:40;101573.63;;;13.67;100.00
57990;BME280;58373;51.824;5.564;2023-05-07T06:10:05;101576.22;;;13.67;100.00
57990;BME280;58373;51.824;5.564;2023-05-07T06:12:31;101573.63;;;13.67;100.00
57990;BME280;58373;51.824;5.564;2023-05-07T06:14:56;101577.88;;;13.68;100.00
57990;BME280;58373;51.824;5.564;2023-05-07T06:17:21;101578.56;;;13.70;100.00
57990;BME280;58373;51.824;5.564;2023-05-07T06:19:46;101580.25;;;13.71;100.00
57990;BME280;58373;51.824;5.564;2023-05-07T06:22:12;101589.72;;;13.72;100.00
57990;BME280;58373;51.824;5.564;2023-05-07T06:24:37;101591.34;;;13.73;100.00
57990;BME280;58373;51.824;5.564;2023-05-07T06:27:02;101586.81;;;13.75;100.00
57990;BME280;58373;51.824;5.564;2023-05-07T06:29:27;101588.50;;;13.76;100.00
57990;BME280;58373;51.824;5.564;2023-05-07T06:31:53;101594.41;;;13.78;100.00
57990;BME280;58373;51.824;5.564;2023-05-07T06:34:18;101588.22;;;13.79;100.00
57990;BME280;58373;51.824;5.564;2023-05-07T06:36:43;101585.50;;;13.81;100.00
57990;BME280;58373;51.824;5.564;2023-05-07T06:39:08;101581.09;;;13.81;100.00
57990;BME280;58373;51.824;5.564;2023-05-07T06:41:34;101582.78;;;13.82;100.00
57990;BME280;58373;51.824;5.564;2023-05-07T06:44:00;101584.44;;;13.84;100.00
57990;BME280;58373;51.824;5.564;2023-05-07T06:46:27;101580.88;;;13.85;100.00
57990;BME280;58373;51.824;5.564;2023-05-07T06:48:52;101588.56;;;13.86;100.00
57990;BME280;58373;51.824;5.564;2023-05-07T06:51:17;101584.16;;;13.87;100.00
57990;BME280;58373;51.824;5.564;2023-05-07T06:53:42;101585.81;;;13.88;100.00
57990;BME280;58373;51.824;5.564;2023-05-07T06:56:08;101592.56;;;13.90;100.00
57990;BME280;58373;51.824;5.564;2023-05-07T06:58:33;101586.38;;;13.91;100.00
57990;BME280;58373;51.824;5.564;2023-05-07T07:00:58;101589.69;;;13.93;100.00
57990;BME280;58373;51.824;5.564;2023-05-07T07:03:23;101586.00;;;13.96;100.00
57990;BME280;58373;51.824;5.564;2023-05-07T07:05:52;101591.22;;;13.96;100.00
57990;BME280;58373;51.824;5.564;2023-05-07T07:08:18;101595.47;;;13.97;100.00
57990;BME280;58373;51.824;5.564;2023-05-07T07:10:43;101579.84;;;13.97;100.00
57990;BME280;58373;51.824;5.564;2023-05-07T07:13:08;101579.59;;;14.00;100.00
57990;BME280;58373;51.824;5.564;2023-05-07T07:15:33;101588.09;;;14.02;100.00
57990;BME280;58373;51.824;5.564;2023-05-07T07:17:58;101591.66;;;14.01;100.00
57990;BME280;58373;51.824;5.564;2023-05-07T07:20:24;101593.31;;;14.02;100.00
57990;BME280;58373;51.824;5.564;2023-05-07T07:22:49;101596.88;;;14.01;100.00
57990;BME280;58373;51.824;5.564;2023-05-07T07:25:15;101600.47;;;14.00;100.00
57990;BME280;58373;51.824;5.564;2023-05-07T07:27:40;101602.09;;;14.01;100.00
57990;BME280;58373;51.824;5.564;2023-05-07T07:30:05;101601.16;;;14.02;100.00
57990;BME280;58373;51.824;5.564;2023-05-07T07:32:31;101594.97;;;14.03;100.00
57990;BME280;58373;51.824;5.564;2023-05-07T07:34:57;101589.06;;;14.01;100.00
57990;BME280;58373;51.824;5.564;2023-05-07T07:37:22;101593.31;;;14.02;100.00
57990;BME280;58373;51.824;5.564;2023-05-07T07:39:48;101596.88;;;14.01;100.00
57990;BME280;58373;51.824;5.564;2023-05-07T07:42:13;101596.88;;;14.01;100.00
57990;BME280;58373;51.824;5.564;2023-05-07T07:44:38;101599.22;;;14.04;100.00
57990;BME280;58373;51.824;5.564;2023-05-07T07:47:04;101601.84;;;14.04;100.00
57990;BME280;58373;51.824;5.564;2023-05-07T07:49:29;101600.75;;;14.06;100.00
57990;BME280;58373;51.824;5.564;2023-05-07T07:51:55;101601.31;;;14.10;100.00
57990;BME280;58373;51.824;5.564;2023-05-07T07:54:21;101601.06;;;14.13;100.00
57990;BME280;58373;51.824;5.564;2023-05-07T07:56:46;101606.00;;;14.16;100.00
57990;BME280;58373;51.824;5.564;2023-05-07T07:59:11;101606.88;;;14.17;100.00
57990;BME280;58373;51.824;5.564;2023-05-07T08:01:38;101604.13;;;14.18;100.00
57990;BME280;58373;51.824;5.564;2023-05-07T08:04:03;101612.63;;;14.20;100.00
57990;BME280;58373;51.824;5.564;2023-05-07T08:06:30;101613.34;;;14.22;100.00
57990;BME280;58373;51.824;5.564;2023-05-07T08:08:55;101614.72;;;14.26;100.00
57990;BME280;58373;51.824;5.564;2023-05-07T08:11:20;101611.88;;;14.29;100.00
57990;BME280;58373;51.824;5.564;2023-05-07T08:13:46;101607.34;;;14.31;100.00
57990;BME280;58373;51.824;5.564;2023-05-07T08:16:11;101611.47;;;14.34;100.00
57990;BME280;58373;51.824;5.564;2023-05-07T08:18:37;101611.06;;;14.39;100.00
57990;BME280;58373;51.824;5.564;2023-05-07T08:21:02;101606.44;;;14.42;100.00
57990;BME280;58373;51.824;5.564;2023-05-07T08:23:27;101609.81;;;14.54;100.00
57990;BME280;58373;51.824;5.564;2023-05-07T08:25:52;101611.72;;;14.52;100.00
57990;BME280;58373;51.824;5.564;2023-05-07T08:28:18;101613.09;;;14.56;100.00
57990;BME280;58373;51.824;5.564;2023-05-07T08:30:44;101617.78;;;14.62;100.00
57990;BME280;58373;51.824;5.564;2023-05-07T08:33:09;101615.88;;;14.64;100.00
57990;BME280;58373;51.824;5.564;2023-05-07T08:35:34;101615.59;;;14.67;100.00
57990;BME280;58373;51.824;5.564;2023-05-07T08:38:00;101617.00;;;14.71;100.00
57990;BME280;58373;51.824;5.564;2023-05-07T08:40:25;101613.19;;;14.75;100.00
57990;BME280;58373;51.824;5.564;2023-05-07T08:42:52;101618.84;;;14.80;100.00
57990;BME280;58373;51.824;5.564;2023-05-07T08:45:17;101617.34;;;14.87;100.00
57990;BME280;58373;51.824;5.564;2023-05-07T08:47:44;101623.94;;;14.92;100.00
57990;BME280;58373;51.824;5.564;2023-05-07T08:50:10;101622.31;;;15.00;100.00
57990;BME280;58373;51.824;5.564;2023-05-07T08:52:36;101621.75;;;15.06;100.00
57990;BME280;58373;51.824;5.564;2023-05-07T08:55:02;101624.66;;;15.13;100.00
57990;BME280;58373;51.824;5.564;2023-05-07T08:57:27;101619.84;;;15.18;100.00
57990;BME280;58373;51.824;5.564;2023-05-07T08:59:53;101621.81;;;15.26;100.00
57990;BME280;58373;51.824;5.564;2023-05-07T09:02:18;101620.44;;;15.31;100.00
57990;BME280;58373;51.824;5.564;2023-05-07T09:04:43;101621.78;;;15.35;100.00
57990;BME280;58373;51.824;5.564;2023-05-07T09:07:08;101624.81;;;15.40;100.00
57990;BME280;58373;51.824;5.564;2023-05-07T09:09:34;101624.44;;;15.45;100.00
57990;BME280;58373;51.824;5.564;2023-05-07T09:11:59;101632.53;;;15.52;100.00
57990;BME280;58373;51.824;5.564;2023-05-07T09:14:25;101630.09;;;15.60;100.00
57990;BME280;58373;51.824;5.564;2023-05-07T09:16:52;101633.09;;;15.65;100.00
57990;BME280;58373;51.824;5.564;2023-05-07T09:19:21;101629.25;;;15.69;100.00
57990;BME280;58373;51.824;5.564;2023-05-07T09:21:46;101630.66;;;15.73;100.00
57990;BME280;58373;51.824;5.564;2023-05-07T09:24:12;101638.91;;;15.78;100.00
57990;BME280;58373;51.824;5.564;2023-05-07T09:26:40;101635.88;;;15.83;100.00
57990;BME280;58373;51.824;5.564;2023-05-07T09:29:05;101634.75;;;15.85;100.00
57990;BME280;58373;51.824;5.564;2023-05-07T09:31:31;101638.06;;;15.87;100.00
57990;BME280;58373;51.824;5.564;2023-05-07T09:33:57;101627.59;;;15.87;100.00
57990;BME280;58373;51.824;5.564;2023-05-07T09:36:22;101632.56;;;15.90;100.00
57990;BME280;58373;51.824;5.564;2023-05-07T09:38:47;101627.72;;;15.96;100.00
57990;BME280;58373;51.824;5.564;2023-05-07T09:41:14;101638.59;;;16.01;99.91
57990;BME280;58373;51.824;5.564;2023-05-07T09:43:39;101636.66;;;16.03;99.83
57990;BME280;58373;51.824;5.564;2023-05-07T09:46:11;101631.16;;;16.06;99.94
57990;BME280;58373;51.824;5.564;2023-05-07T09:48:37;101637.75;;;16.10;100.00
57990;BME280;58373;51.824;5.564;2023-05-07T09:51:05;101642.97;;;16.10;99.58
57990;BME280;58373;51.824;5.564;2023-05-07T09:53:31;101637.47;;;16.13;99.55
57990;BME280;58373;51.824;5.564;2023-05-07T09:55:58;101640.50;;;16.18;99.87
57990;BME280;58373;51.824;5.564;2023-05-07T09:58:24;101639.22;;;16.22;99.85
57990;BME280;58373;51.824;5.564;2023-05-07T10:00:50;101644.59;;;16.30;99.61
57990;BME280;58373;51.824;5.564;2023-05-07T10:03:16;101631.91;;;16.35;99.83
57990;BME280;58373;51.824;5.564;2023-05-07T10:05:43;101638.22;;;16.42;99.92
57990;BME280;58373;51.824;5.564;2023-05-07T10:08:09;101635.00;;;16.49;99.44
57990;BME280;58373;51.824;5.564;2023-05-07T10:10:35;101639.66;;;16.55;99.41
57990;BME280;58373;51.824;5.564;2023-05-07T10:13:01;101636.47;;;16.61;99.38
57990;BME280;58373;51.824;5.564;2023-05-07T10:15:26;101632.44;;;16.66;99.47
57990;BME280;58373;51.824;5.564;2023-05-07T10:17:53;101634.53;;;16.72;99.04
57990;BME280;58373;51.824;5.564;2023-05-07T10:20:19;101637.38;;;16.79;99.13
57990;BME280;58373;51.824;5.564;2023-05-07T10:22:45;101632.53;;;16.84;98.64
57990;BME280;58373;51.824;5.564;2023-05-07T10:25:19;101631.94;;;16.90;98.48
57990;BME280;58373;51.824;5.564;2023-05-07T10:27:46;101628.88;;;16.95;98.56
57990;BME280;58373;51.824;5.564;2023-05-07T10:30:22;101636.31;;;16.99;98.32
57990;BME280;58373;51.824;5.564;2023-05-07T10:32:50;101641.78;;;17.06;98.38
57990;BME280;58373;51.824;5.564;2023-05-07T10:35:21;101632.66;;;17.10;97.97
57990;BME280;58373;51.824;5.564;2023-05-07T10:37:47;101630.44;;;17.15;97.98
57990;BME280;58373;51.824;5.564;2023-05-07T10:40:13;101634.53;;;17.18;97.51
57990;BME280;58373;51.824;5.564;2023-05-07T10:42:38;101639.50;;;17.21;97.25
57990;BME280;58373;51.824;5.564;2023-05-07T10:45:13;101637.38;;;17.24;97.42
57990;BME280;58373;51.824;5.564;2023-05-07T10:50:23;101639.94;;;17.34;97.54
57990;BME280;58373;51.824;5.564;2023-05-07T10:53:12;101640.31;;;17.39;97.36
57990;BME280;58373;51.824;5.564;2023-05-07T10:55:33;101637.38;;;17.42;97.04
57990;BME280;58373;51.824;5.564;2023-05-07T10:58:17;101640.00;;;17.42;95.83
57990;BME280;58373;51.824;5.564;2023-05-07T11:00:44;101642.94;;;17.39;96.00
57990;BME280;58373;51.824;5.564;2023-05-07T11:03:09;101644.31;;;17.43;96.22
57990;BME280;58373;51.824;5.564;2023-05-07T11:05:35;101644.00;;;17.46;96.31
57990;BME280;58373;51.824;5.564;2023-05-07T11:08:02;101636.78;;;17.48;96.40
57990;BME280;58373;51.824;5.564;2023-05-07T11:13:11;101630.44;;;17.51;95.75
57990;BME280;58373;51.824;5.564;2023-05-07T11:15:40;101637.31;;;17.52;96.30
57990;BME280;58373;51.824;5.564;2023-05-07T11:18:06;101630.94;;;17.55;96.55
57990;BME280;58373;51.824;5.564;2023-05-07T11:20:45;101636.72;;;17.58;96.37
57990;BME280;58373;51.824;5.564;2023-05-07T11:28:30;101642.78;;;17.59;96.48
57990;BME280;58373;51.824;5.564;2023-05-07T11:30:55;101641.66;;;17.61;96.36
57990;BME280;58373;51.824;5.564;2023-05-07T11:33:21;101648.41;;;17.64;96.19
57990;BME280;58373;51.824;5.564;2023-05-07T11:35:47;101650.72;;;17.67;96.06
57990;BME280;58373;51.824;5.564;2023-05-07T11:38:12;101641.56;;;17.71;96.03
57990;BME280;58373;51.824;5.564;2023-05-07T11:43:15;101640.69;;;17.80;95.86
57990;BME280;58373;51.824;5.564;2023-05-07T11:45:41;101640.09;;;17.86;95.64
57990;BME280;58373;51.824;5.564;2023-05-07T11:48:06;101638.13;;;17.88;95.24
57990;BME280;58373;51.824;5.564;2023-05-07T11:50:31;101639.47;;;17.92;95.63
57990;BME280;58373;51.824;5.564;2023-05-07T11:52:56;101646.06;;;17.96;95.70
57990;BME280;58373;51.824;5.564;2023-05-07T11:55:23;101640.50;;;17.99;95.31
57990;BME280;58373;51.824;5.564;2023-05-07T11:57:49;101652.34;;;18.03;95.28
57990;BME280;58373;51.824;5.564;2023-05-07T12:00:15;101641.56;;;18.07;94.80
57990;BME280;58373;51.824;5.564;2023-05-07T12:02:41;101644.84;;;18.09;94.30
57990;BME280;58373;51.824;5.564;2023-05-07T12:05:07;101641.22;;;18.10;93.80
57990;BME280;58373;51.824;5.564;2023-05-07T12:07:33;101645.19;;;18.14;93.50
57990;BME280;58373;51.824;5.564;2023-05-07T12:09:58;101643.88;;;18.18;93.51
57990;BME280;58373;51.824;5.564;2023-05-07T12:12:23;101646.38;;;18.19;93.19
57990;BME280;58373;51.824;5.564;2023-05-07T12:14:49;101652.13;;;18.23;93.20
57990;BME280;58373;51.824;5.564;2023-05-07T12:17:14;101653.81;;;18.24;92.39
57990;BME280;58373;51.824;5.564;2023-05-07T12:19:40;101651.84;;;18.26;91.11
57990;BME280;58373;51.824;5.564;2023-05-07T12:22:09;101657.63;;;18.29;91.39
57990;BME280;58373;51.824;5.564;2023-05-07T12:24:56;101657.44;;;18.31;91.40
57990;BME280;58373;51.824;5.564;2023-05-07T12:27:22;101655.31;;;18.35;90.82
57990;BME280;58373;51.824;5.564;2023-05-07T12:29:48;101657.66;;;18.38;90.93
57990;BME280;58373;51.824;5.564;2023-05-07T12:32:15;101661.09;;;18.38;90.47
57990;BME280;58373;51.824;5.564;2023-05-07T12:34:41;101660.81;;;18.41;90.34
57990;BME280;58373;51.824;5.564;2023-05-07T12:37:06;101657.19;;;18.42;90.39
57990;BME280;58373;51.824;5.564;2023-05-07T12:39:31;101660.81;;;18.41;89.56
57990;BME280;58373;51.824;5.564;2023-05-07T12:42:00;101664.09;;;18.43;89.96
57990;BME280;58373;51.824;5.564;2023-05-07T12:44:28;101663.47;;;18.49;90.18
57990;BME280;58373;51.824;5.564;2023-05-07T12:46:54;101665.09;;;18.50;89.44
57990;BME280;58373;51.824;5.564;2023-05-07T12:49:19;101664.94;;;18.52;88.85
57990;BME280;58373;51.824;5.564;2023-05-07T12:51:46;101669.72;;;18.56;88.77